ENFY weather

Fyresdal Airfield
Fyresdal, Telemark, Norway

Public forecast

Using degrees Celsius for public forecast. Weather courtesy of forecast.io.

METAR (pilot weather report)

Report is more than 6 hours old.

Closest report is Notodden Airport, 40.8 nm (75.6 km) ENE. Retrieved 2019/05/20 16:50 UTC (8 hours ago):

ENNO 201650Z 27004KT 250V310 9999 -RA FEW015 BKN035 14/13 Q1011

TAF (pilot weather forecast)

Forecast is more than 12 hours old.

Closest forecast is Kristiansand Airport, 59.8 nm (110.7 km) S. Retrieved 2016/05/06 12:39 UTC (3 years ago):

TAF TAF ENCN 061100Z 0612/0712 14008KT 9999 FEW040